sensor_id;sensor_type;location;lat;lon;timestamp;temperature;humidity
10443;DHT22;5269;51.146;16.986;2023-08-12T00:00:18;15.30;99.90
10443;DHT22;5269;51.146;16.986;2023-08-12T00:02:51;15.30;99.90
10443;DHT22;5269;51.146;16.986;2023-08-12T00:05:27;15.30;99.90
10443;DHT22;5269;51.146;16.986;2023-08-12T00:11:17;15.20;99.90
10443;DHT22;5269;51.146;16.986;2023-08-12T00:13:59;15.10;99.90
10443;DHT22;5269;51.146;16.986;2023-08-12T00:16:29;15.10;99.90
10443;DHT22;5269;51.146;16.986;2023-08-12T00:19:18;15.10;99.90
10443;DHT22;5269;51.146;16.986;2023-08-12T00:21:51;15.10;99.90
10443;DHT22;5269;51.146;16.986;2023-08-12T00:28:01;15.00;99.90
10443;DHT22;5269;51.146;16.986;2023-08-12T00:30:37;15.00;99.90
10443;DHT22;5269;51.146;16.986;2023-08-12T00:36:39;14.90;99.90
10443;DHT22;5269;51.146;16.986;2023-08-12T00:39:09;14.80;99.90
10443;DHT22;5269;51.146;16.986;2023-08-12T00:41:38;14.80;99.90
10443;DHT22;5269;51.146;16.986;2023-08-12T00:44:10;14.80;99.90
10443;DHT22;5269;51.146;16.986;2023-08-12T00:46:41;14.70;99.90
10443;DHT22;5269;51.146;16.986;2023-08-12T00:49:48;14.70;99.90
10443;DHT22;5269;51.146;16.986;2023-08-12T00:52:17;14.70;99.90
10443;DHT22;5269;51.146;16.986;2023-08-12T00:54:48;14.70;99.90
10443;DHT22;5269;51.146;16.986;2023-08-12T00:57:21;14.70;99.90
10443;DHT22;5269;51.146;16.986;2023-08-12T01:00:09;14.70;99.90
10443;DHT22;5269;51.146;16.986;2023-08-12T01:02:39;14.60;99.90
10443;DHT22;5269;51.146;16.986;2023-08-12T01:05:31;14.60;99.90
10443;DHT22;5269;51.146;16.986;2023-08-12T01:08:18;14.70;99.90
10443;DHT22;5269;51.146;16.986;2023-08-12T01:11:11;14.60;99.90
10443;DHT22;5269;51.146;16.986;2023-08-12T01:13:58;14.70;99.90
10443;DHT22;5269;51.146;16.986;2023-08-12T01:16:30;14.60;99.90
10443;DHT22;5269;51.146;16.986;2023-08-12T01:19:39;14.60;99.90
10443;DHT22;5269;51.146;16.986;2023-08-12T01:22:11;14.60;99.90
10443;DHT22;5269;51.146;16.986;2023-08-12T01:25:21;14.60;99.90
10443;DHT22;5269;51.146;16.986;2023-08-12T01:28:08;14.50;99.90
10443;DHT22;5269;51.146;16.986;2023-08-12T01:30:42;14.50;99.90
10443;DHT22;5269;51.146;16.986;2023-08-12T01:33:39;14.50;99.90
10443;DHT22;5269;51.146;16.986;2023-08-12T01:36:12;14.50;99.90
10443;DHT22;5269;51.146;16.986;2023-08-12T01:41:59;14.50;99.90
10443;DHT22;5269;51.146;16.986;2023-08-12T01:44:48;14.50;99.90
10443;DHT22;5269;51.146;16.986;2023-08-12T01:47:18;14.50;99.90
10443;DHT22;5269;51.146;16.986;2023-08-12T01:50:07;14.50;99.90
10443;DHT22;5269;51.146;16.986;2023-08-12T01:52:41;14.50;99.90
10443;DHT22;5269;51.146;16.986;2023-08-12T01:55:27;14.40;99.90
10443;DHT22;5269;51.146;16.986;2023-08-12T01:57:59;14.40;99.90
10443;DHT22;5269;51.146;16.986;2023-08-12T02:01:01;14.40;99.90
10443;DHT22;5269;51.146;16.986;2023-08-12T02:03:50;14.40;99.90
10443;DHT22;5269;51.146;16.986;2023-08-12T02:06:21;14.30;99.90
10443;DHT22;5269;51.146;16.986;2023-08-12T02:10:08;14.30;99.90
10443;DHT22;5269;51.146;16.986;2023-08-12T02:12:21;14.30;99.90
10443;DHT22;5269;51.146;16.986;2023-08-12T02:18:29;14.30;99.90
10443;DHT22;5269;51.146;16.986;2023-08-12T02:21:01;14.20;99.90
10443;DHT22;5269;51.146;16.986;2023-08-12T02:24:09;14.20;99.90
10443;DHT22;5269;51.146;16.986;2023-08-12T02:26:39;14.20;99.90
10443;DHT22;5269;51.146;16.986;2023-08-12T02:29:10;14.20;99.90
10443;DHT22;5269;51.146;16.986;2023-08-12T02:31:39;14.20;99.90
10443;DHT22;5269;51.146;16.986;2023-08-12T02:37:29;14.20;99.90
10443;DHT22;5269;51.146;16.986;2023-08-12T02:40:27;14.20;99.90
10443;DHT22;5269;51.146;16.986;2023-08-12T02:43:21;14.20;99.90
10443;DHT22;5269;51.146;16.986;2023-08-12T02:46:09;14.20;99.90
10443;DHT22;5269;51.146;16.986;2023-08-12T02:48:38;14.10;99.90
10443;DHT22;5269;51.146;16.986;2023-08-12T02:51:10;14.10;99.90
10443;DHT22;5269;51.146;16.986;2023-08-12T02:53:49;14.20;99.90
10443;DHT22;5269;51.146;16.986;2023-08-12T02:56:20;14.10;99.90
10443;DHT22;5269;51.146;16.986;2023-08-12T02:58:49;14.10;99.90
10443;DHT22;5269;51.146;16.986;2023-08-12T03:01:29;14.10;99.90
10443;DHT22;5269;51.146;16.986;2023-08-12T03:07:10;14.10;99.90
10443;DHT22;5269;51.146;16.986;2023-08-12T03:09:49;14.10;99.90
10443;DHT22;5269;51.146;16.986;2023-08-12T03:12:19;14.10;99.90
10443;DHT22;5269;51.146;16.986;2023-08-12T03:15:08;14.10;99.90
10443;DHT22;5269;51.146;16.986;2023-08-12T03:17:38;14.00;99.90
10443;DHT22;5269;51.146;16.986;2023-08-12T03:20:31;14.00;99.90
10443;DHT22;5269;51.146;16.986;2023-08-12T03:23:18;14.00;99.90
10443;DHT22;5269;51.146;16.986;2023-08-12T03:25:59;14.00;99.90
10443;DHT22;5269;51.146;16.986;2023-08-12T03:28:29;14.00;99.90
10443;DHT22;5269;51.146;16.986;2023-08-12T03:31:28;14.10;99.90
10443;DHT22;5269;51.146;16.986;2023-08-12T03:37:07;14.00;99.90
10443;DHT22;5269;51.146;16.986;2023-08-12T03:40:09;14.00;99.90
10443;DHT22;5269;51.146;16.986;2023-08-12T03:42:38;14.00;99.90
10443;DHT22;5269;51.146;16.986;2023-08-12T03:45:10;14.00;99.90
10443;DHT22;5269;51.146;16.986;2023-08-12T03:47:40;14.00;99.90
10443;DHT22;5269;51.146;16.986;2023-08-12T03:50:09;14.00;99.90
10443;DHT22;5269;51.146;16.986;2023-08-12T03:52:39;14.00;99.90
10443;DHT22;5269;51.146;16.986;2023-08-12T03:55:17;14.00;99.90
10443;DHT22;5269;51.146;16.986;2023-08-12T03:57:48;14.00;99.90
10443;DHT22;5269;51.146;16.986;2023-08-12T04:00:29;14.10;99.90
10443;DHT22;5269;51.146;16.986;2023-08-12T04:03:01;14.10;99.90
10443;DHT22;5269;51.146;16.986;2023-08-12T04:05:52;14.10;99.90
10443;DHT22;5269;51.146;16.986;2023-08-12T04:08:29;14.20;99.90
10443;DHT22;5269;51.146;16.986;2023-08-12T04:11:44;14.20;99.90
10443;DHT22;5269;51.146;16.986;2023-08-12T04:15:01;14.20;99.90
10443;DHT22;5269;51.146;16.986;2023-08-12T04:17:38;14.30;99.90
10443;DHT22;5269;51.146;16.986;2023-08-12T04:20:29;14.40;99.90
10443;DHT22;5269;51.146;16.986;2023-08-12T04:22:58;14.40;99.90
10443;DHT22;5269;51.146;16.986;2023-08-12T04:25:40;14.50;99.90
10443;DHT22;5269;51.146;16.986;2023-08-12T04:28:08;14.50;99.90
10443;DHT22;5269;51.146;16.986;2023-08-12T04:30:59;14.60;99.90
10443;DHT22;5269;51.146;16.986;2023-08-12T04:34:18;14.70;99.90
10443;DHT22;5269;51.146;16.986;2023-08-12T04:37:00;14.80;99.90
10443;DHT22;5269;51.146;16.986;2023-08-12T04:39:48;14.90;99.90
10443;DHT22;5269;51.146;16.986;2023-08-12T04:42:18;15.00;99.90
10443;DHT22;5269;51.146;16.986;2023-08-12T04:45:07;15.10;99.90
10443;DHT22;5269;51.146;16.986;2023-08-12T04:47:40;15.20;99.90
10443;DHT22;5269;51.146;16.986;2023-08-12T04:50:50;15.30;99.90
10443;DHT22;5269;51.146;16.986;2023-08-12T04:53:20;15.40;99.90
10443;DHT22;5269;51.146;16.986;2023-08-12T04:56:00;15.50;99.90
10443;DHT22;5269;51.146;16.986;2023-08-12T04:58:37;15.60;99.90
10443;DHT22;5269;51.146;16.986;2023-08-12T05:01:08;15.80;99.90
10443;DHT22;5269;51.146;16.986;2023-08-12T05:03:39;15.90;99.90
10443;DHT22;5269;51.146;16.986;2023-08-12T05:06:09;15.90;99.90
10443;DHT22;5269;51.146;16.986;2023-08-12T05:08:38;16.10;99.90
10443;DHT22;5269;51.146;16.986;2023-08-12T05:11:11;16.20;99.90
10443;DHT22;5269;51.146;16.986;2023-08-12T05:13:50;16.30;99.90
10443;DHT22;5269;51.146;16.986;2023-08-12T05:16:17;16.40;99.90
10443;DHT22;5269;51.146;16.986;2023-08-12T05:18:49;16.60;99.90
10443;DHT22;5269;51.146;16.986;2023-08-12T05:21:18;16.70;99.90
10443;DHT22;5269;51.146;16.986;2023-08-12T05:23:48;16.90;99.90
10443;DHT22;5269;51.146;16.986;2023-08-12T05:26:18;17.00;99.90
10443;DHT22;5269;51.146;16.986;2023-08-12T05:32:08;17.20;99.90
10443;DHT22;5269;51.146;16.986;2023-08-12T05:34:41;17.40;99.90
10443;DHT22;5269;51.146;16.986;2023-08-12T05:37:18;17.50;99.90
10443;DHT22;5269;51.146;16.986;2023-08-12T05:39:48;17.70;99.90
10443;DHT22;5269;51.146;16.986;2023-08-12T05:42:20;17.70;99.90
10443;DHT22;5269;51.146;16.986;2023-08-12T05:44:58;17.90;99.90
10443;DHT22;5269;51.146;16.986;2023-08-12T05:47:31;18.10;99.90
10443;DHT22;5269;51.146;16.986;2023-08-12T05:50:21;18.30;99.90
10443;DHT22;5269;51.146;16.986;2023-08-12T05:52:58;18.40;1.00
10443;DHT22;5269;51.146;16.986;2023-08-12T05:55:27;18.70;1.00
10443;DHT22;5269;51.146;16.986;2023-08-12T05:57:58;18.90;1.00
10443;DHT22;5269;51.146;16.986;2023-08-12T06:00:29;19.00;99.90
10443;DHT22;5269;51.146;16.986;2023-08-12T06:02:58;19.10;1.00
10443;DHT22;5269;51.146;16.986;2023-08-12T06:05:29;19.20;32.70
10443;DHT22;5269;51.146;16.986;2023-08-12T06:07:57;19.30;24.30
10443;DHT22;5269;51.146;16.986;2023-08-12T06:10:30;19.40;1.00
10443;DHT22;5269;51.146;16.986;2023-08-12T06:13:00;19.50;1.00
10443;DHT22;5269;51.146;16.986;2023-08-12T06:15:28;19.70;99.90
10443;DHT22;5269;51.146;16.986;2023-08-12T06:18:01;19.80;1.00
10443;DHT22;5269;51.146;16.986;2023-08-12T06:23:38;20.00;99.90
10443;DHT22;5269;51.146;16.986;2023-08-12T06:29:30;20.50;1.00
10443;DHT22;5269;51.146;16.986;2023-08-12T06:32:11;20.80;1.00
10443;DHT22;5269;51.146;16.986;2023-08-12T06:34:48;21.00;99.90
10443;DHT22;5269;51.146;16.986;2023-08-12T06:37:19;21.10;99.90
10443;DHT22;5269;51.146;16.986;2023-08-12T06:57:19;22.20;99.90
10443;DHT22;5269;51.146;16.986;2023-08-12T07:03:10;22.50;99.90
10443;DHT22;5269;51.146;16.986;2023-08-12T07:09:00;22.60;99.90
10443;DHT22;5269;51.146;16.986;2023-08-12T07:14:52;22.40;99.90
10443;DHT22;5269;51.146;16.986;2023-08-12T07:17:41;22.40;99.90
10443;DHT22;5269;51.146;16.986;2023-08-12T07:24:11;22.50;99.90
10443;DHT22;5269;51.146;16.986;2023-08-12T07:30:18;22.60;99.90
10443;DHT22;5269;51.146;16.986;2023-08-12T07:32:48;22.70;99.90
10443;DHT22;5269;51.146;16.986;2023-08-12T07:38:39;22.90;99.90
10443;DHT22;5269;51.146;16.986;2023-08-12T07:44:28;23.10;99.90
10443;DHT22;5269;51.146;16.986;2023-08-12T07:47:00;23.30;76.50
10443;DHT22;5269;51.146;16.986;2023-08-12T07:49:38;23.40;16.60
10443;DHT22;5269;51.146;16.986;2023-08-12T07:52:08;23.50;1.00
10443;DHT22;5269;51.146;16.986;2023-08-12T07:57:59;23.60;1.00
10443;DHT22;5269;51.146;16.986;2023-08-12T08:03:50;23.80;1.00
10443;DHT22;5269;51.146;16.986;2023-08-12T08:06:22;23.90;1.00
10443;DHT22;5269;51.146;16.986;2023-08-12T08:12:39;24.00;1.00
10443;DHT22;5269;51.146;16.986;2023-08-12T08:18:31;24.00;1.00
10443;DHT22;5269;51.146;16.986;2023-08-12T08:21:19;24.10;1.00
10443;DHT22;5269;51.146;16.986;2023-08-12T08:27:08;24.40;1.00
10443;DHT22;5269;51.146;16.986;2023-08-12T08:33:00;24.60;1.00
10443;DHT22;5269;51.146;16.986;2023-08-12T08:35:30;24.70;1.00
10443;DHT22;5269;51.146;16.986;2023-08-12T08:37:59;24.90;1.00
10443;DHT22;5269;51.146;16.986;2023-08-12T08:40:31;24.90;1.00
10443;DHT22;5269;51.146;16.986;2023-08-12T08:43:19;25.00;1.00
10443;DHT22;5269;51.146;16.986;2023-08-12T08:45:58;24.90;1.00
10443;DHT22;5269;51.146;16.986;2023-08-12T08:48:30;25.00;1.00
10443;DHT22;5269;51.146;16.986;2023-08-12T08:51:20;25.10;1.00
10443;DHT22;5269;51.146;16.986;2023-08-12T08:53:49;25.30;1.00
10443;DHT22;5269;51.146;16.986;2023-08-12T08:56:19;25.30;1.00
10443;DHT22;5269;51.146;16.986;2023-08-12T08:58:50;25.30;1.00
10443;DHT22;5269;51.146;16.986;2023-08-12T09:01:29;25.50;1.00
10443;DHT22;5269;51.146;16.986;2023-08-12T09:03:58;25.60;1.00
10443;DHT22;5269;51.146;16.986;2023-08-12T09:09:58;25.60;1.00
10443;DHT22;5269;51.146;16.986;2023-08-12T09:12:30;25.40;1.00
10443;DHT22;5269;51.146;16.986;2023-08-12T09:14:58;25.40;1.00
10443;DHT22;5269;51.146;16.986;2023-08-12T09:17:31;25.70;1.00
10443;DHT22;5269;51.146;16.986;2023-08-12T09:20:11;25.80;1.00
10443;DHT22;5269;51.146;16.986;2023-08-12T09:22:58;26.00;1.00
10443;DHT22;5269;51.146;16.986;2023-08-12T09:25:30;26.10;1.00
10443;DHT22;5269;51.146;16.986;2023-08-12T09:27:59;26.10;1.00
10443;DHT22;5269;51.146;16.986;2023-08-12T09:30:30;26.30;1.00
10443;DHT22;5269;51.146;16.986;2023-08-12T09:33:02;26.20;1.00
10443;DHT22;5269;51.146;16.986;2023-08-12T09:35:50;26.10;1.00
10443;DHT22;5269;51.146;16.986;2023-08-12T09:38:18;26.20;1.00
10443;DHT22;5269;51.146;16.986;2023-08-12T09:44:28;26.50;1.00
10443;DHT22;5269;51.146;16.986;2023-08-12T09:46:58;26.50;1.00
10443;DHT22;5269;51.146;16.986;2023-08-12T09:49:28;26.70;1.00
10443;DHT22;5269;51.146;16.986;2023-08-12T09:52:02;26.60;1.00
10443;DHT22;5269;51.146;16.986;2023-08-12T09:54:42;26.70;1.00
10443;DHT22;5269;51.146;16.986;2023-08-12T09:57:19;26.60;1.00
10443;DHT22;5269;51.146;16.986;2023-08-12T10:00:00;26.80;1.00
10443;DHT22;5269;51.146;16.986;2023-08-12T10:02:31;26.90;1.00
10443;DHT22;5269;51.146;16.986;2023-08-12T10:05:21;27.10;1.00
10443;DHT22;5269;51.146;16.986;2023-08-12T10:08:09;27.20;1.00
10443;DHT22;5269;51.146;16.986;2023-08-12T10:14:09;27.20;1.00
10443;DHT22;5269;51.146;16.986;2023-08-12T10:16:42;27.10;1.00
10443;DHT22;5269;51.146;16.986;2023-08-12T10:19:20;27.30;1.00
10443;DHT22;5269;51.146;16.986;2023-08-12T10:21:48;27.40;1.00
10443;DHT22;5269;51.146;16.986;2023-08-12T10:24:28;27.60;1.00
10443;DHT22;5269;51.146;16.986;2023-08-12T10:26:59;27.60;1.00
10443;DHT22;5269;51.146;16.986;2023-08-12T10:29:29;27.70;1.00
10443;DHT22;5269;51.146;16.986;2023-08-12T10:31:58;27.70;1.00
10443;DHT22;5269;51.146;16.986;2023-08-12T10:34:30;27.70;1.00
10443;DHT22;5269;51.146;16.986;2023-08-12T10:37:02;27.70;1.00
10443;DHT22;5269;51.146;16.986;2023-08-12T10:39:59;27.70;1.00
10443;DHT22;5269;51.146;16.986;2023-08-12T10:42:49;27.90;1.00
10443;DHT22;5269;51.146;16.986;2023-08-12T10:45:19;27.80;1.00
10443;DHT22;5269;51.146;16.986;2023-08-12T10:48:11;27.90;1.00
10443;DHT22;5269;51.146;16.986;2023-08-12T10:51:08;28.00;1.00
10443;DHT22;5269;51.146;16.986;2023-08-12T10:53:50;28.10;1.00
10443;DHT22;5269;51.146;16.986;2023-08-12T10:59:58;28.00;1.00
10443;DHT22;5269;51.146;16.986;2023-08-12T11:02:31;28.10;1.00
10443;DHT22;5269;51.146;16.986;2023-08-12T11:05:11;28.20;1.00
10443;DHT22;5269;51.146;16.986;2023-08-12T11:07:59;28.30;1.00
10443;DHT22;5269;51.146;16.986;2023-08-12T11:10:38;28.40;1.00
10443;DHT22;5269;51.146;16.986;2023-08-12T11:13:09;28.40;1.00
10443;DHT22;5269;51.146;16.986;2023-08-12T11:15:50;28.50;1.00
10443;DHT22;5269;51.146;16.986;2023-08-12T11:18:20;28.50;1.00
10443;DHT22;5269;51.146;16.986;2023-08-12T11:20:50;28.60;1.00
10443;DHT22;5269;51.146;16.986;2023-08-12T11:23:20;28.60;1.00
10443;DHT22;5269;51.146;16.986;2023-08-12T11:25:50;28.60;1.00
10443;DHT22;5269;51.146;16.986;2023-08-12T11:28:38;28.60;1.00
10443;DHT22;5269;51.146;16.986;2023-08-12T11:31:10;28.50;1.00
10443;DHT22;5269;51.146;16.986;2023-08-12T11:33:39;28.60;1.00
10443;DHT22;5269;51.146;16.986;2023-08-12T11:36:08;28.60;1.00
10443;DHT22;5269;51.146;16.986;2023-08-12T11:38:41;28.60;1.00
10443;DHT22;5269;51.146;16.986;2023-08-12T11:41:18;28.70;1.00
10443;DHT22;5269;51.146;16.986;2023-08-12T11:43:58;28.70;1.00
10443;DHT22;5269;51.146;16.986;2023-08-12T11:46:38;28.70;1.00
10443;DHT22;5269;51.146;16.986;2023-08-12T11:49:08;28.70;1.00
10443;DHT22;5269;51.146;16.986;2023-08-12T11:51:41;28.90;1.00
10443;DHT22;5269;51.146;16.986;2023-08-12T11:54:19;29.00;1.00
10443;DHT22;5269;51.146;16.986;2023-08-12T11:56:52;29.00;1.00
10443;DHT22;5269;51.146;16.986;2023-08-12T11:59:28;28.90;1.00
10443;DHT22;5269;51.146;16.986;2023-08-12T12:05:22;29.00;1.00
10443;DHT22;5269;51.146;16.986;2023-08-12T12:07:59;29.00;1.00
10443;DHT22;5269;51.146;16.986;2023-08-12T12:10:48;29.10;1.00
10443;DHT22;5269;51.146;16.986;2023-08-12T12:13:21;29.20;1.00
10443;DHT22;5269;51.146;16.986;2023-08-12T12:15:59;29.20;1.00
10443;DHT22;5269;51.146;16.986;2023-08-12T12:18:29;29.40;1.00
10443;DHT22;5269;51.146;16.986;2023-08-12T12:21:09;29.50;1.00
10443;DHT22;5269;51.146;16.986;2023-08-12T12:23:38;29.50;1.00
10443;DHT22;5269;51.146;16.986;2023-08-12T12:26:11;29.50;1.00
10443;DHT22;5269;51.146;16.986;2023-08-12T12:28:39;29.50;1.00
10443;DHT22;5269;51.146;16.986;2023-08-12T12:31:38;29.40;1.00
10443;DHT22;5269;51.146;16.986;2023-08-12T12:34:09;29.30;1.00
10443;DHT22;5269;51.146;16.986;2023-08-12T12:36:51;29.40;1.00
10443;DHT22;5269;51.146;16.986;2023-08-12T12:39:32;29.60;1.00
10443;DHT22;5269;51.146;16.986;2023-08-12T12:42:19;29.70;1.00
10443;DHT22;5269;51.146;16.986;2023-08-12T12:45:08;29.60;1.00
10443;DHT22;5269;51.146;16.986;2023-08-12T12:47:38;29.60;1.00
10443;DHT22;5269;51.146;16.986;2023-08-12T12:50:09;29.50;1.00
10443;DHT22;5269;51.146;16.986;2023-08-12T12:52:40;29.60;1.00
10443;DHT22;5269;51.146;16.986;2023-08-12T12:55:31;29.60;1.00
10443;DHT22;5269;51.146;16.986;2023-08-12T12:57:58;29.60;1.00
10443;DHT22;5269;51.146;16.986;2023-08-12T13:00:30;29.70;1.00
10443;DHT22;5269;51.146;16.986;2023-08-12T13:02:59;29.70;99.90
10443;DHT22;5269;51.146;16.986;2023-08-12T13:05:38;29.90;99.90
10443;DHT22;5269;51.146;16.986;2023-08-12T13:08:10;29.90;1.00
10443;DHT22;5269;51.146;16.986;2023-08-12T13:10:59;29.90;99.90
10443;DHT22;5269;51.146;16.986;2023-08-12T13:13:29;29.70;99.90
10443;DHT22;5269;51.146;16.986;2023-08-12T13:16:09;29.70;99.90
10443;DHT22;5269;51.146;16.986;2023-08-12T13:18:39;29.80;99.90
10443;DHT22;5269;51.146;16.986;2023-08-12T13:23:58;30.20;99.90
10443;DHT22;5269;51.146;16.986;2023-08-12T13:30:00;30.40;99.90
10443;DHT22;5269;51.146;16.986;2023-08-12T13:32:30;30.30;99.90
10443;DHT22;5269;51.146;16.986;2023-08-12T13:38:30;30.60;99.90
10443;DHT22;5269;51.146;16.986;2023-08-12T13:41:01;30.70;99.90
10443;DHT22;5269;51.146;16.986;2023-08-12T13:43:39;30.90;99.90
10443;DHT22;5269;51.146;16.986;2023-08-12T13:46:10;30.60;1.00
10443;DHT22;5269;51.146;16.986;2023-08-12T13:48:39;30.60;99.90
10443;DHT22;5269;51.146;16.986;2023-08-12T13:51:10;30.60;99.90
10443;DHT22;5269;51.146;16.986;2023-08-12T13:53:40;30.70;99.90
10443;DHT22;5269;51.146;16.986;2023-08-12T13:56:28;30.70;99.90
10443;DHT22;5269;51.146;16.986;2023-08-12T13:59:00;30.80;99.90
10443;DHT22;5269;51.146;16.986;2023-08-12T14:01:31;30.90;99.90
10443;DHT22;5269;51.146;16.986;2023-08-12T14:04:31;30.90;99.90
10443;DHT22;5269;51.146;16.986;2023-08-12T14:07:20;30.90;99.90
10443;DHT22;5269;51.146;16.986;2023-08-12T14:09:50;31.10;99.90
10443;DHT22;5269;51.146;16.986;2023-08-12T14:12:21;31.40;99.90
10443;DHT22;5269;51.146;16.986;2023-08-12T14:15:00;31.50;99.90
10443;DHT22;5269;51.146;16.986;2023-08-12T14:17:29;31.50;99.90
10443;DHT22;5269;51.146;16.986;2023-08-12T14:20:00;31.60;99.90
10443;DHT22;5269;51.146;16.986;2023-08-12T14:23:08;31.70;99.90
10443;DHT22;5269;51.146;16.986;2023-08-12T14:25:41;31.70;99.90
10443;DHT22;5269;51.146;16.986;2023-08-12T14:28:38;31.90;99.90
10443;DHT22;5269;51.146;16.986;2023-08-12T14:31:09;31.90;99.90
10443;DHT22;5269;51.146;16.986;2023-08-12T14:33:39;31.90;99.90
10443;DHT22;5269;51.146;16.986;2023-08-12T14:36:12;32.00;99.90
10443;DHT22;5269;51.146;16.986;2023-08-12T14:38:59;31.80;99.90
10443;DHT22;5269;51.146;16.986;2023-08-12T14:41:29;32.00;99.90
10443;DHT22;5269;51.146;16.986;2023-08-12T14:44:00;32.10;99.90
10443;DHT22;5269;51.146;16.986;2023-08-12T14:46:30;32.20;99.90
10443;DHT22;5269;51.146;16.986;2023-08-12T14:49:01;32.10;99.90
10443;DHT22;5269;51.146;16.986;2023-08-12T14:51:38;32.20;99.90
10443;DHT22;5269;51.146;16.986;2023-08-12T14:54:10;32.20;99.90
10443;DHT22;5269;51.146;16.986;2023-08-12T14:56:38;32.50;99.90
10443;DHT22;5269;51.146;16.986;2023-08-12T15:13:50;32.50;99.90
10443;DHT22;5269;51.146;16.986;2023-08-12T15:20:10;32.40;99.90
10443;DHT22;5269;51.146;16.986;2023-08-12T15:22:40;32.40;99.90
10443;DHT22;5269;51.146;16.986;2023-08-12T15:25:18;32.60;99.90
10443;DHT22;5269;51.146;16.986;2023-08-12T15:38:08;33.00;99.90
10443;DHT22;5269;51.146;16.986;2023-08-12T15:41:00;33.10;99.90
10443;DHT22;5269;51.146;16.986;2023-08-12T15:43:29;33.10;99.90
10443;DHT22;5269;51.146;16.986;2023-08-12T15:45:58;33.30;99.90
10443;DHT22;5269;51.146;16.986;2023-08-12T15:48:31;33.10;99.90
10443;DHT22;5269;51.146;16.986;2023-08-12T15:51:08;33.10;99.90
10443;DHT22;5269;51.146;16.986;2023-08-12T15:53:40;33.20;99.90
10443;DHT22;5269;51.146;16.986;2023-08-12T16:03:10;33.00;99.90
10443;DHT22;5269;51.146;16.986;2023-08-12T16:09:01;33.50;99.90
10443;DHT22;5269;51.146;16.986;2023-08-12T16:14:50;32.90;99.90
10443;DHT22;5269;51.146;16.986;2023-08-12T16:17:19;32.50;99.90
10443;DHT22;5269;51.146;16.986;2023-08-12T16:23:09;32.30;99.90
10443;DHT22;5269;51.146;16.986;2023-08-12T16:29:00;32.40;99.90
10443;DHT22;5269;51.146;16.986;2023-08-12T16:31:30;32.50;99.90
10443;DHT22;5269;51.146;16.986;2023-08-12T16:37:20;32.00;99.90
10443;DHT22;5269;51.146;16.986;2023-08-12T16:43:09;31.80;99.90
10443;DHT22;5269;51.146;16.986;2023-08-12T16:48:59;31.30;99.90
10443;DHT22;5269;51.146;16.986;2023-08-12T16:51:29;31.30;99.90
10443;DHT22;5269;51.146;16.986;2023-08-12T16:57:20;30.60;99.90
10443;DHT22;5269;51.146;16.986;2023-08-12T17:03:09;30.40;99.90
10443;DHT22;5269;51.146;16.986;2023-08-12T17:09:10;30.40;99.90
10443;DHT22;5269;51.146;16.986;2023-08-12T17:11:40;30.90;99.90
10443;DHT22;5269;51.146;16.986;2023-08-12T17:17:41;30.70;99.90
10443;DHT22;5269;51.146;16.986;2023-08-12T17:23:41;30.10;99.90
10443;DHT22;5269;51.146;16.986;2023-08-12T17:29:42;29.80;99.90
10443;DHT22;5269;51.146;16.986;2023-08-12T17:32:19;29.70;99.90
10443;DHT22;5269;51.146;16.986;2023-08-12T17:38:11;29.30;99.90
10443;DHT22;5269;51.146;16.986;2023-08-12T17:44:08;29.00;99.90
10443;DHT22;5269;51.146;16.986;2023-08-12T17:46:39;28.90;99.90
10443;DHT22;5269;51.146;16.986;2023-08-12T17:49:08;28.80;99.90
10443;DHT22;5269;51.146;16.986;2023-08-12T17:51:38;28.60;1.00
10443;DHT22;5269;51.146;16.986;2023-08-12T17:54:11;28.30;1.00
10443;DHT22;5269;51.146;16.986;2023-08-12T17:56:49;28.10;1.00
10443;DHT22;5269;51.146;16.986;2023-08-12T17:59:19;28.00;1.00
10443;DHT22;5269;51.146;16.986;2023-08-12T18:01:50;28.00;1.00
10443;DHT22;5269;51.146;16.986;2023-08-12T18:04:51;27.90;1.00
10443;DHT22;5269;51.146;16.986;2023-08-12T18:07:41;27.90;1.00
10443;DHT22;5269;51.146;16.986;2023-08-12T18:10:32;27.70;1.00
10443;DHT22;5269;51.146;16.986;2023-08-12T18:13:28;27.70;1.00
10443;DHT22;5269;51.146;16.986;2023-08-12T18:16:01;27.60;1.00
10443;DHT22;5269;51.146;16.986;2023-08-12T18:18:49;27.50;1.00
10443;DHT22;5269;51.146;16.986;2023-08-12T18:21:40;27.40;1.00
10443;DHT22;5269;51.146;16.986;2023-08-12T18:24:21;27.30;1.00
10443;DHT22;5269;51.146;16.986;2023-08-12T18:27:00;27.30;1.00
10443;DHT22;5269;51.146;16.986;2023-08-12T18:32:30;27.10;1.00
10443;DHT22;5269;51.146;16.986;2023-08-12T18:35:29;27.00;1.00
10443;DHT22;5269;51.146;16.986;2023-08-12T18:38:02;27.00;1.00
10443;DHT22;5269;51.146;16.986;2023-08-12T18:40:39;26.90;1.00
10443;DHT22;5269;51.146;16.986;2023-08-12T18:44:01;26.80;1.00
10443;DHT22;5269;51.146;16.986;2023-08-12T18:46:28;26.70;1.00
10443;DHT22;5269;51.146;16.986;2023-08-12T18:49:09;26.50;1.00
10443;DHT22;5269;51.146;16.986;2023-08-12T18:52:10;26.40;1.00
10443;DHT22;5269;51.146;16.986;2023-08-12T18:55:10;26.30;1.00
10443;DHT22;5269;51.146;16.986;2023-08-12T18:58:09;26.30;1.00
10443;DHT22;5269;51.146;16.986;2023-08-12T19:00:50;26.20;1.00
10443;DHT22;5269;51.146;16.986;2023-08-12T19:03:31;26.20;1.00
10443;DHT22;5269;51.146;16.986;2023-08-12T19:06:31;26.10;1.00
10443;DHT22;5269;51.146;16.986;2023-08-12T19:09:10;26.10;1.00
10443;DHT22;5269;51.146;16.986;2023-08-12T19:11:51;26.10;1.00
10443;DHT22;5269;51.146;16.986;2023-08-12T19:14:19;26.10;1.00
10443;DHT22;5269;51.146;16.986;2023-08-12T19:16:49;26.10;1.00
10443;DHT22;5269;51.146;16.986;2023-08-12T19:19:30;26.10;1.00
10443;DHT22;5269;51.146;16.986;2023-08-12T19:21:59;26.20;1.00
10443;DHT22;5269;51.146;16.986;2023-08-12T19:24:31;26.20;1.00
10443;DHT22;5269;51.146;16.986;2023-08-12T19:27:18;26.30;1.00
10443;DHT22;5269;51.146;16.986;2023-08-12T20:03:29;26.20;1.00
10443;DHT22;5269;51.146;16.986;2023-08-12T20:12:30;26.00;1.00
10443;DHT22;5269;51.146;16.986;2023-08-12T20:19:20;25.90;1.00
10443;DHT22;5269;51.146;16.986;2023-08-12T20:23:12;25.80;1.00
10443;DHT22;5269;51.146;16.986;2023-08-12T20:25:51;25.70;1.00
10443;DHT22;5269;51.146;16.986;2023-08-12T20:32:32;25.50;1.00
10443;DHT22;5269;51.146;16.986;2023-08-12T20:35:32;25.30;1.00
10443;DHT22;5269;51.146;16.986;2023-08-12T20:38:39;25.20;1.00
10443;DHT22;5269;51.146;16.986;2023-08-12T20:47:42;25.20;1.00
10443;DHT22;5269;51.146;16.986;2023-08-12T20:50:19;25.10;1.00
10443;DHT22;5269;51.146;16.986;2023-08-12T20:52:50;25.10;1.00
10443;DHT22;5269;51.146;16.986;2023-08-12T20:55:20;25.10;1.00
10443;DHT22;5269;51.146;16.986;2023-08-12T20:57:49;25.10;1.00
10443;DHT22;5269;51.146;16.986;2023-08-12T21:03:44;24.90;1.00
10443;DHT22;5269;51.146;16.986;2023-08-12T21:06:18;24.90;1.00
10443;DHT22;5269;51.146;16.986;2023-08-12T21:08:50;24.80;1.00
10443;DHT22;5269;51.146;16.986;2023-08-12T21:11:19;24.80;1.00
10443;DHT22;5269;51.146;16.986;2023-08-12T21:13:48;24.80;1.00